sensor_id;sensor_type;location;lat;lon;timestamp;pressure;altitude;pressure_sealevel;temperature;humidity
68807;BME280;55800;54.272;18.558;2023-09-19T00:00:57;99987.13;;;19.66;66.50
68807;BME280;55800;54.272;18.558;2023-09-19T00:03:39;99985.25;;;19.66;66.40
68807;BME280;55800;54.272;18.558;2023-09-19T00:06:10;99989.94;;;19.64;66.27
68807;BME280;55800;54.272;18.558;2023-09-19T00:08:41;99991.69;;;19.65;66.25
68807;BME280;55800;54.272;18.558;2023-09-19T00:11:13;99986.50;;;19.62;66.25
68807;BME280;55800;54.272;18.558;2023-09-19T00:13:44;99994.53;;;19.64;66.45
68807;BME280;55800;54.272;18.558;2023-09-19T00:16:18;99989.22;;;19.62;66.44
68807;BME280;55800;54.272;18.558;2023-09-19T00:18:48;99984.81;;;19.61;66.06
68807;BME280;55800;54.272;18.558;2023-09-19T00:21:18;99986.50;;;19.62;66.12
68807;BME280;55800;54.272;18.558;2023-09-19T00:23:48;99988.50;;;19.60;66.05
68807;BME280;55800;54.272;18.558;2023-09-19T00:26:20;99991.22;;;19.60;66.11
68807;BME280;55800;54.272;18.558;2023-09-19T00:28:52;99987.78;;;19.58;66.20
68807;BME280;55800;54.272;18.558;2023-09-19T00:31:22;99986.81;;;19.59;66.28
68807;BME280;55800;54.272;18.558;2023-09-19T00:33:54;99987.94;;;19.57;66.42
68807;BME280;55800;54.272;18.558;2023-09-19T00:36:26;99982.50;;;19.57;66.08
68807;BME280;55800;54.272;18.558;2023-09-19T00:38:55;99983.38;;;19.57;66.15
68807;BME280;55800;54.272;18.558;2023-09-19T00:41:26;99982.50;;;19.57;66.00
68807;BME280;55800;54.272;18.558;2023-09-19T00:43:58;99970.78;;;19.56;66.06
68807;BME280;55800;54.272;18.558;2023-09-19T00:46:28;99969.09;;;19.55;66.04
68807;BME280;55800;54.272;18.558;2023-09-19T00:48:59;99973.66;;;19.55;66.09
68807;BME280;55800;54.272;18.558;2023-09-19T00:51:29;99975.50;;;19.54;66.19
68807;BME280;55800;54.272;18.558;2023-09-19T00:53:59;99977.34;;;19.54;66.18
68807;BME280;55800;54.272;18.558;2023-09-19T00:56:30;99973.78;;;19.53;66.44
68807;BME280;55800;54.272;18.558;2023-09-19T00:59:00;99968.38;;;19.53;66.32
68807;BME280;55800;54.272;18.558;2023-09-19T01:01:29;99969.34;;;19.52;66.12
68807;BME280;55800;54.272;18.558;2023-09-19T01:03:58;99965.66;;;19.53;66.18
68807;BME280;55800;54.272;18.558;2023-09-19T01:06:28;99958.50;;;19.52;66.33
68807;BME280;55800;54.272;18.558;2023-09-19T01:08:59;99957.63;;;19.52;66.65
68807;BME280;55800;54.272;18.558;2023-09-19T01:11:38;99966.78;;;19.51;66.79
68807;BME280;55800;54.272;18.558;2023-09-19T01:14:17;99972.22;;;19.51;66.77
68807;BME280;55800;54.272;18.558;2023-09-19T01:16:56;99971.34;;;19.50;66.79
68807;BME280;55800;54.272;18.558;2023-09-19T01:19:56;99959.63;;;19.50;66.72
68807;BME280;55800;54.272;18.558;2023-09-19T01:22:42;99964.19;;;19.49;66.92
68807;BME280;55800;54.272;18.558;2023-09-19T01:28:28;99950.78;;;19.48;66.61
68807;BME280;55800;54.272;18.558;2023-09-19T01:31:02;99964.34;;;19.48;66.63
68807;BME280;55800;54.272;18.558;2023-09-19T01:33:58;99961.75;;;19.46;66.68
68807;BME280;55800;54.272;18.558;2023-09-19T01:36:30;99960.91;;;19.45;66.68
68807;BME280;55800;54.272;18.558;2023-09-19T01:39:04;99956.50;;;19.44;67.08
68807;BME280;55800;54.272;18.558;2023-09-19T01:41:56;99958.34;;;19.44;66.74
68807;BME280;55800;54.272;18.558;2023-09-19T01:44:35;99968.31;;;19.43;66.95
68807;BME280;55800;54.272;18.558;2023-09-19T01:47:13;99953.91;;;19.43;66.99
68807;BME280;55800;54.272;18.558;2023-09-19T01:49:55;99961.31;;;19.41;67.05
68807;BME280;55800;54.272;18.558;2023-09-19T01:52:30;99956.91;;;19.40;67.03
68807;BME280;55800;54.272;18.558;2023-09-19T01:55:07;99947.03;;;19.39;66.96
68807;BME280;55800;54.272;18.558;2023-09-19T01:57:47;99950.75;;;19.38;67.12
68807;BME280;55800;54.272;18.558;2023-09-19T02:00:19;99947.31;;;19.36;67.14
68807;BME280;55800;54.272;18.558;2023-09-19T02:02:52;99936.59;;;19.34;67.03
68807;BME280;55800;54.272;18.558;2023-09-19T02:05:24;99942.13;;;19.33;67.18
68807;BME280;55800;54.272;18.558;2023-09-19T02:07:55;99944.84;;;19.33;67.03
68807;BME280;55800;54.272;18.558;2023-09-19T02:10:26;99937.69;;;19.32;67.04
68807;BME280;55800;54.272;18.558;2023-09-19T02:12:56;99940.38;;;19.32;67.00
68807;BME280;55800;54.272;18.558;2023-09-19T02:15:27;99939.66;;;19.30;67.23
68807;BME280;55800;54.272;18.558;2023-09-19T02:17:57;99932.56;;;19.29;67.88
68807;BME280;55800;54.272;18.558;2023-09-19T02:20:27;99930.81;;;19.28;67.60
68807;BME280;55800;54.272;18.558;2023-09-19T02:22:56;99935.25;;;19.29;70.13
68807;BME280;55800;54.272;18.558;2023-09-19T02:25:25;99945.09;;;19.30;70.91
68807;BME280;55800;54.272;18.558;2023-09-19T02:27:56;99947.69;;;19.31;71.67
68807;BME280;55800;54.272;18.558;2023-09-19T02:33:48;99941.06;;;19.45;72.10
68807;BME280;55800;54.272;18.558;2023-09-19T02:36:17;99940.34;;;19.43;70.74
68807;BME280;55800;54.272;18.558;2023-09-19T02:38:47;99931.94;;;19.46;71.34
68807;BME280;55800;54.272;18.558;2023-09-19T02:41:16;99917.38;;;19.47;70.74
68807;BME280;55800;54.272;18.558;2023-09-19T02:43:46;99917.84;;;19.52;72.88
68807;BME280;55800;54.272;18.558;2023-09-19T02:46:16;99913.59;;;19.59;72.51
68807;BME280;55800;54.272;18.558;2023-09-19T02:48:47;99905.75;;;19.66;73.17
68807;BME280;55800;54.272;18.558;2023-09-19T02:51:17;99901.06;;;19.68;74.06
68807;BME280;55800;54.272;18.558;2023-09-19T02:53:46;99904.06;;;19.74;72.57
68807;BME280;55800;54.272;18.558;2023-09-19T02:56:17;99892.03;;;19.67;71.59
68807;BME280;55800;54.272;18.558;2023-09-19T02:58:47;99899.47;;;19.65;70.70
68807;BME280;55800;54.272;18.558;2023-09-19T03:01:17;99903.03;;;19.66;70.72
68807;BME280;55800;54.272;18.558;2023-09-19T03:03:49;99883.19;;;19.65;70.18
68807;BME280;55800;54.272;18.558;2023-09-19T03:06:18;99884.91;;;19.66;69.82
68807;BME280;55800;54.272;18.558;2023-09-19T03:08:48;99886.63;;;19.67;69.87
68807;BME280;55800;54.272;18.558;2023-09-19T03:11:21;99881.19;;;19.67;69.42
68807;BME280;55800;54.272;18.558;2023-09-19T03:13:55;99882.06;;;19.68;70.43
68807;BME280;55800;54.272;18.558;2023-09-19T03:16:25;99877.34;;;19.70;70.66
68807;BME280;55800;54.272;18.558;2023-09-19T03:18:59;99862.06;;;19.69;70.08
68807;BME280;55800;54.272;18.558;2023-09-19T03:21:31;99865.78;;;19.68;69.46
68807;BME280;55800;54.272;18.558;2023-09-19T03:24:00;99867.50;;;19.69;69.41
68807;BME280;55800;54.272;18.558;2023-09-19T03:26:30;99868.50;;;19.68;69.01
68807;BME280;55800;54.272;18.558;2023-09-19T03:28:59;99876.66;;;19.68;69.13
68807;BME280;55800;54.272;18.558;2023-09-19T03:31:29;99873.06;;;19.67;68.90
68807;BME280;55800;54.272;18.558;2023-09-19T03:34:00;99874.03;;;19.66;69.05
68807;BME280;55800;54.272;18.558;2023-09-19T03:36:31;99866.91;;;19.65;69.02
68807;BME280;55800;54.272;18.558;2023-09-19T03:39:03;99865.19;;;19.64;68.93
68807;BME280;55800;54.272;18.558;2023-09-19T03:41:33;99868.78;;;19.65;68.92
68807;BME280;55800;54.272;18.558;2023-09-19T03:44:05;99871.63;;;19.63;69.43
68807;BME280;55800;54.272;18.558;2023-09-19T03:46:34;99875.22;;;19.64;68.98
68807;BME280;55800;54.272;18.558;2023-09-19T03:49:06;99874.34;;;19.63;68.67
68807;BME280;55800;54.272;18.558;2023-09-19T03:51:36;99873.63;;;19.61;68.69
68807;BME280;55800;54.272;18.558;2023-09-19T03:54:08;99877.16;;;19.62;69.12
68807;BME280;55800;54.272;18.558;2023-09-19T03:56:38;99863.75;;;19.60;68.70
68807;BME280;55800;54.272;18.558;2023-09-19T03:59:13;99856.75;;;19.58;69.03
68807;BME280;55800;54.272;18.558;2023-09-19T04:01:42;99848.63;;;19.58;68.75
68807;BME280;55800;54.272;18.558;2023-09-19T04:04:13;99861.34;;;19.57;68.85
68807;BME280;55800;54.272;18.558;2023-09-19T04:06:43;99850.63;;;19.56;68.99
68807;BME280;55800;54.272;18.558;2023-09-19T04:09:12;99857.19;;;19.53;68.93
68807;BME280;55800;54.272;18.558;2023-09-19T04:11:42;99860.91;;;19.52;69.10
68807;BME280;55800;54.272;18.558;2023-09-19T04:14:12;99868.31;;;19.50;69.06
68807;BME280;55800;54.272;18.558;2023-09-19T04:16:41;99860.19;;;19.50;69.15
68807;BME280;55800;54.272;18.558;2023-09-19T04:19:10;99864.88;;;19.48;69.35
68807;BME280;55800;54.272;18.558;2023-09-19T04:21:42;99869.44;;;19.48;69.25
68807;BME280;55800;54.272;18.558;2023-09-19T04:24:12;99873.28;;;19.45;69.15
68807;BME280;55800;54.272;18.558;2023-09-19T04:26:41;99876.00;;;19.45;69.34
68807;BME280;55800;54.272;18.558;2023-09-19T04:29:11;99870.72;;;19.43;69.32
68807;BME280;55800;54.272;18.558;2023-09-19T04:31:42;99872.56;;;19.43;69.51
68807;BME280;55800;54.272;18.558;2023-09-19T04:34:13;99872.72;;;19.41;69.62
68807;BME280;55800;54.272;18.558;2023-09-19T04:36:46;99881.81;;;19.40;69.54
68807;BME280;55800;54.272;18.558;2023-09-19T04:39:16;99885.53;;;19.39;69.76
68807;BME280;55800;54.272;18.558;2023-09-19T04:41:45;99886.66;;;19.37;69.95
68807;BME280;55800;54.272;18.558;2023-09-19T04:44:16;99887.69;;;19.36;69.60
68807;BME280;55800;54.272;18.558;2023-09-19T04:46:46;99889.69;;;19.34;69.86
68807;BME280;55800;54.272;18.558;2023-09-19T04:49:15;99897.81;;;19.34;70.04
68807;BME280;55800;54.272;18.558;2023-09-19T04:51:47;99893.34;;;19.33;70.40
68807;BME280;55800;54.272;18.558;2023-09-19T04:54:17;99897.81;;;19.34;71.67
68807;BME280;55800;54.272;18.558;2023-09-19T04:56:46;99905.94;;;19.34;71.59
68807;BME280;55800;54.272;18.558;2023-09-19T04:59:15;99896.03;;;19.33;72.82
68807;BME280;55800;54.272;18.558;2023-09-19T05:01:45;99898.91;;;19.31;71.29
68807;BME280;55800;54.272;18.558;2023-09-19T05:04:15;99897.31;;;19.29;71.20
68807;BME280;55800;54.272;18.558;2023-09-19T05:06:44;99891.19;;;19.27;71.56
68807;BME280;55800;54.272;18.558;2023-09-19T05:09:15;99889.03;;;19.30;73.14
68807;BME280;55800;54.272;18.558;2023-09-19T05:11:47;99882.75;;;19.30;71.51
68807;BME280;55800;54.272;18.558;2023-09-19T05:14:17;99888.16;;;19.30;72.13
68807;BME280;55800;54.272;18.558;2023-09-19T05:16:47;99888.16;;;19.30;71.41
68807;BME280;55800;54.272;18.558;2023-09-19T05:19:17;99889.91;;;19.31;71.13
68807;BME280;55800;54.272;18.558;2023-09-19T05:21:46;99878.19;;;19.30;71.27
68807;BME280;55800;54.272;18.558;2023-09-19T05:24:18;99876.34;;;19.31;70.93
68807;BME280;55800;54.272;18.558;2023-09-19T05:26:48;99874.50;;;19.31;70.66
68807;BME280;55800;54.272;18.558;2023-09-19T05:29:17;99871.66;;;19.33;70.67
68807;BME280;55800;54.272;18.558;2023-09-19T05:31:46;99868.06;;;19.32;70.68
68807;BME280;55800;54.272;18.558;2023-09-19T05:34:16;99864.38;;;19.33;70.52
68807;BME280;55800;54.272;18.558;2023-09-19T05:36:45;99881.41;;;19.35;70.79
68807;BME280;55800;54.272;18.558;2023-09-19T05:39:18;99876.84;;;19.36;70.58
68807;BME280;55800;54.272;18.558;2023-09-19T05:41:47;99888.50;;;19.36;70.67
68807;BME280;55800;54.272;18.558;2023-09-19T05:44:17;99888.41;;;19.38;70.36
68807;BME280;55800;54.272;18.558;2023-09-19T05:46:45;99892.81;;;19.39;70.29
68807;BME280;55800;54.272;18.558;2023-09-19T05:49:18;99896.25;;;19.41;70.69
68807;BME280;55800;54.272;18.558;2023-09-19T05:51:49;99896.84;;;19.44;70.44
68807;BME280;55800;54.272;18.558;2023-09-19T05:54:25;99893.13;;;19.45;70.87
68807;BME280;55800;54.272;18.558;2023-09-19T05:56:55;99899.13;;;19.49;70.64
68807;BME280;55800;54.272;18.558;2023-09-19T05:59:26;99901.56;;;19.52;70.62
68807;BME280;55800;54.272;18.558;2023-09-19T06:01:55;99908.56;;;19.55;73.97
68807;BME280;55800;54.272;18.558;2023-09-19T06:04:24;99906.59;;;19.57;73.39
68807;BME280;55800;54.272;18.558;2023-09-19T06:06:54;99913.28;;;19.62;77.16
68807;BME280;55800;54.272;18.558;2023-09-19T06:09:25;99914.00;;;19.64;75.02
68807;BME280;55800;54.272;18.558;2023-09-19T06:11:55;99903.63;;;19.69;73.58
68807;BME280;55800;54.272;18.558;2023-09-19T06:14:25;99916.16;;;19.70;73.78
68807;BME280;55800;54.272;18.558;2023-09-19T06:16:54;99905.75;;;19.75;73.96
68807;BME280;55800;54.272;18.558;2023-09-19T06:19:24;99909.50;;;19.74;73.97
68807;BME280;55800;54.272;18.558;2023-09-19T06:21:53;99913.75;;;19.77;76.51
68807;BME280;55800;54.272;18.558;2023-09-19T06:24:24;99926.50;;;19.86;77.19
68807;BME280;55800;54.272;18.558;2023-09-19T06:26:54;99928.78;;;19.90;76.20
68807;BME280;55800;54.272;18.558;2023-09-19T06:29:23;99928.63;;;19.92;77.57
68807;BME280;55800;54.272;18.558;2023-09-19T06:31:52;99931.22;;;19.93;77.81
68807;BME280;55800;54.272;18.558;2023-09-19T06:34:22;99932.06;;;19.94;77.74
68807;BME280;55800;54.272;18.558;2023-09-19T06:36:52;99928.38;;;19.95;77.24
68807;BME280;55800;54.272;18.558;2023-09-19T06:39:25;99925.50;;;19.96;76.93
68807;BME280;55800;54.272;18.558;2023-09-19T06:41:54;99920.53;;;20.01;76.24
68807;BME280;55800;54.272;18.558;2023-09-19T06:44:23;99924.81;;;20.04;75.70
68807;BME280;55800;54.272;18.558;2023-09-19T06:46:53;99923.38;;;20.09;76.73
68807;BME280;55800;54.272;18.558;2023-09-19T06:49:23;99925.16;;;20.20;76.52
68807;BME280;55800;54.272;18.558;2023-09-19T06:51:54;99930.88;;;20.27;76.67
68807;BME280;55800;54.272;18.558;2023-09-19T06:54:27;99934.28;;;20.29;76.66
68807;BME280;55800;54.272;18.558;2023-09-19T06:56:59;99937.56;;;20.32;77.00
68807;BME280;55800;54.272;18.558;2023-09-19T06:59:28;99938.44;;;20.33;77.60
68807;BME280;55800;54.272;18.558;2023-09-19T07:02:00;99938.16;;;20.36;77.05
68807;BME280;55800;54.272;18.558;2023-09-19T07:04:30;99937.88;;;20.39;77.71
68807;BME280;55800;54.272;18.558;2023-09-19T07:06:59;99933.44;;;20.38;78.08
68807;BME280;55800;54.272;18.558;2023-09-19T07:09:30;99937.59;;;20.42;76.77
68807;BME280;55800;54.272;18.558;2023-09-19T07:11:59;99932.56;;;20.47;75.66
68807;BME280;55800;54.272;18.558;2023-09-19T07:14:33;99942.72;;;20.45;76.21
68807;BME280;55800;54.272;18.558;2023-09-19T07:17:02;99947.88;;;20.48;77.30
68807;BME280;55800;54.272;18.558;2023-09-19T07:19:32;99940.16;;;20.53;77.07
68807;BME280;55800;54.272;18.558;2023-09-19T07:22:02;99937.31;;;20.54;76.88
68807;BME280;55800;54.272;18.558;2023-09-19T07:24:33;99952.16;;;20.60;77.04
68807;BME280;55800;54.272;18.558;2023-09-19T07:27:04;99951.88;;;20.63;76.69
68807;BME280;55800;54.272;18.558;2023-09-19T07:29:34;99945.16;;;20.67;76.18
68807;BME280;55800;54.272;18.558;2023-09-19T07:32:04;99943.59;;;20.74;76.67
68807;BME280;55800;54.272;18.558;2023-09-19T07:34:34;99954.41;;;20.83;76.40
68807;BME280;55800;54.272;18.558;2023-09-19T07:37:03;99952.56;;;20.84;76.71
68807;BME280;55800;54.272;18.558;2023-09-19T07:39:34;99950.97;;;20.91;75.87
68807;BME280;55800;54.272;18.558;2023-09-19T07:42:04;99948.69;;;20.96;75.57
68807;BME280;55800;54.272;18.558;2023-09-19T07:44:36;99948.41;;;20.99;75.78
68807;BME280;55800;54.272;18.558;2023-09-19T07:47:05;99967.84;;;21.04;76.10
68807;BME280;55800;54.272;18.558;2023-09-19T07:49:34;99967.28;;;21.00;77.00
68807;BME280;55800;54.272;18.558;2023-09-19T07:52:04;99965.69;;;20.98;76.75
68807;BME280;55800;54.272;18.558;2023-09-19T07:54:35;99959.56;;;20.96;76.37
68807;BME280;55800;54.272;18.558;2023-09-19T07:57:04;99963.28;;;20.95;76.30
68807;BME280;55800;54.272;18.558;2023-09-19T07:59:34;99968.72;;;20.95;76.99
68807;BME280;55800;54.272;18.558;2023-09-19T08:02:04;99967.84;;;20.94;76.64
68807;BME280;55800;54.272;18.558;2023-09-19T08:04:36;99969.72;;;20.94;76.06
68807;BME280;55800;54.272;18.558;2023-09-19T08:07:06;99972.44;;;20.94;76.38
68807;BME280;55800;54.272;18.558;2023-09-19T08:09:38;99965.41;;;20.91;76.73
68807;BME280;55800;54.272;18.558;2023-09-19T08:12:08;99972.44;;;20.94;76.33
68807;BME280;55800;54.272;18.558;2023-09-19T08:14:38;99968.84;;;20.93;76.57
68807;BME280;55800;54.272;18.558;2023-09-19T08:17:09;99976.16;;;20.93;76.61
68807;BME280;55800;54.272;18.558;2023-09-19T08:19:40;99972.44;;;20.94;76.81
68807;BME280;55800;54.272;18.558;2023-09-19T08:22:10;99971.56;;;20.93;76.54
68807;BME280;55800;54.272;18.558;2023-09-19T08:24:42;99972.97;;;20.97;76.17
68807;BME280;55800;54.272;18.558;2023-09-19T08:27:11;99978.72;;;21.04;77.03
68807;BME280;55800;54.272;18.558;2023-09-19T08:29:41;99985.31;;;21.11;76.86
68807;BME280;55800;54.272;18.558;2023-09-19T08:32:10;99984.44;;;21.20;77.48
68807;BME280;55800;54.272;18.558;2023-09-19T08:34:39;99982.69;;;21.29;77.20
68807;BME280;55800;54.272;18.558;2023-09-19T08:37:09;99986.41;;;21.37;76.65
68807;BME280;55800;54.272;18.558;2023-09-19T08:39:38;99990.91;;;21.46;76.56
68807;BME280;55800;54.272;18.558;2023-09-19T08:42:09;99993.19;;;21.51;75.59
68807;BME280;55800;54.272;18.558;2023-09-19T08:44:39;100004.66;;;21.54;75.60
68807;BME280;55800;54.272;18.558;2023-09-19T08:47:14;100010.66;;;21.58;74.88
68807;BME280;55800;54.272;18.558;2023-09-19T08:49:53;99992.31;;;21.60;74.77
68807;BME280;55800;54.272;18.558;2023-09-19T08:52:27;99997.00;;;21.67;74.73
68807;BME280;55800;54.272;18.558;2023-09-19T08:55:01;99994.84;;;21.71;74.27
68807;BME280;55800;54.272;18.558;2023-09-19T08:57:34;100008.28;;;21.72;74.47
68807;BME280;55800;54.272;18.558;2023-09-19T09:00:09;100004.81;;;21.80;73.87
68807;BME280;55800;54.272;18.558;2023-09-19T09:02:39;100007.00;;;21.86;72.73
68807;BME280;55800;54.272;18.558;2023-09-19T09:05:10;100004.13;;;21.88;72.55
68807;BME280;55800;54.272;18.558;2023-09-19T09:07:41;100008.69;;;21.87;72.00
68807;BME280;55800;54.272;18.558;2023-09-19T09:10:10;100008.00;;;21.85;72.01
68807;BME280;55800;54.272;18.558;2023-09-19T09:12:42;100017.72;;;21.88;71.86
68807;BME280;55800;54.272;18.558;2023-09-19T09:15:13;100009.97;;;21.93;72.46
68807;BME280;55800;54.272;18.558;2023-09-19T09:17:47;100018.53;;;21.98;72.21
68807;BME280;55800;54.272;18.558;2023-09-19T09:20:18;100023.78;;;22.09;72.22
68807;BME280;55800;54.272;18.558;2023-09-19T09:22:51;100012.09;;;22.16;72.44
68807;BME280;55800;54.272;18.558;2023-09-19T09:25:23;100014.94;;;22.24;72.29
68807;BME280;55800;54.272;18.558;2023-09-19T09:28:03;100018.38;;;22.26;71.01
68807;BME280;55800;54.272;18.558;2023-09-19T09:30:36;100026.09;;;22.31;70.88
68807;BME280;55800;54.272;18.558;2023-09-19T09:33:10;100025.84;;;22.42;71.48
68807;BME280;55800;54.272;18.558;2023-09-19T09:35:49;100024.41;;;22.47;70.50
68807;BME280;55800;54.272;18.558;2023-09-19T09:38:21;100026.97;;;22.49;70.51
68807;BME280;55800;54.272;18.558;2023-09-19T09:40:55;100025.81;;;22.51;69.79
68807;BME280;55800;54.272;18.558;2023-09-19T09:43:32;100034.13;;;22.50;69.25
68807;BME280;55800;54.272;18.558;2023-09-19T09:46:12;100032.56;;;22.47;68.93
68807;BME280;55800;54.272;18.558;2023-09-19T09:49:00;100029.97;;;22.46;69.50
68807;BME280;55800;54.272;18.558;2023-09-19T09:52:02;100032.16;;;22.42;69.24
68807;BME280;55800;54.272;18.558;2023-09-19T09:54:39;100035.91;;;22.41;69.19
68807;BME280;55800;54.272;18.558;2023-09-19T09:57:27;100028.28;;;22.45;69.17
68807;BME280;55800;54.272;18.558;2023-09-19T10:00:00;100030.84;;;22.46;69.49
68807;BME280;55800;54.272;18.558;2023-09-19T10:02:47;100021.22;;;22.52;69.37
68807;BME280;55800;54.272;18.558;2023-09-19T10:05:18;100032.81;;;22.54;69.21
68807;BME280;55800;54.272;18.558;2023-09-19T10:07:56;100033.22;;;22.59;68.72
68807;BME280;55800;54.272;18.558;2023-09-19T10:10:41;100040.25;;;22.62;67.89
68807;BME280;55800;54.272;18.558;2023-09-19T10:13:22;100048.84;;;22.57;67.63
68807;BME280;55800;54.272;18.558;2023-09-19T10:15:57;100058.34;;;22.53;66.94
68807;BME280;55800;54.272;18.558;2023-09-19T10:18:30;100051.31;;;22.50;67.48
68807;BME280;55800;54.272;18.558;2023-09-19T10:21:04;100068.97;;;22.46;67.58
68807;BME280;55800;54.272;18.558;2023-09-19T10:23:36;100077.59;;;22.42;67.65
68807;BME280;55800;54.272;18.558;2023-09-19T10:26:07;100083.22;;;22.40;67.29
68807;BME280;55800;54.272;18.558;2023-09-19T10:28:38;100077.34;;;22.35;67.05
68807;BME280;55800;54.272;18.558;2023-09-19T10:31:10;100079.25;;;22.35;67.60
68807;BME280;55800;54.272;18.558;2023-09-19T10:33:43;100080.94;;;22.36;67.48
68807;BME280;55800;54.272;18.558;2023-09-19T10:36:13;100086.56;;;22.34;67.28
68807;BME280;55800;54.272;18.558;2023-09-19T10:38:44;100078.22;;;22.36;67.64
68807;BME280;55800;54.272;18.558;2023-09-19T10:41:17;100076.81;;;22.32;66.30
68807;BME280;55800;54.272;18.558;2023-09-19T10:43:48;100072.53;;;22.29;66.80
68807;BME280;55800;54.272;18.558;2023-09-19T10:46:23;100062.19;;;22.33;67.15
68807;BME280;55800;54.272;18.558;2023-09-19T10:48:53;100062.59;;;22.38;66.98
68807;BME280;55800;54.272;18.558;2023-09-19T10:51:31;100064.16;;;22.40;67.40
68807;BME280;55800;54.272;18.558;2023-09-19T10:54:05;100068.97;;;22.46;67.41
68807;BME280;55800;54.272;18.558;2023-09-19T10:56:37;100059.50;;;22.50;66.02
68807;BME280;55800;54.272;18.558;2023-09-19T10:59:10;100057.75;;;22.59;66.81
68807;BME280;55800;54.272;18.558;2023-09-19T11:01:44;100060.25;;;22.70;65.65
68807;BME280;55800;54.272;18.558;2023-09-19T11:04:23;100056.19;;;22.74;63.51
68807;BME280;55800;54.272;18.558;2023-09-19T11:07:04;100068.13;;;22.73;63.73
68807;BME280;55800;54.272;18.558;2023-09-19T11:09:47;100075.81;;;22.78;63.86
68807;BME280;55800;54.272;18.558;2023-09-19T11:12:50;100070.78;;;22.83;63.99
68807;BME280;55800;54.272;18.558;2023-09-19T11:18:55;100070.78;;;22.83;62.95
68807;BME280;55800;54.272;18.558;2023-09-19T11:24:29;100074.13;;;22.94;62.98
68807;BME280;55800;54.272;18.558;2023-09-19T11:27:16;100078.41;;;22.97;63.01
68807;BME280;55800;54.272;18.558;2023-09-19T11:29:46;100077.00;;;22.93;60.62
68807;BME280;55800;54.272;18.558;2023-09-19T11:32:17;100080.75;;;22.92;59.96
68807;BME280;55800;54.272;18.558;2023-09-19T11:35:11;100079.59;;;22.94;60.52
68807;BME280;55800;54.272;18.558;2023-09-19T11:38:00;100086.75;;;22.95;59.92
68807;BME280;55800;54.272;18.558;2023-09-19T11:40:30;100083.72;;;22.98;59.51
68807;BME280;55800;54.272;18.558;2023-09-19T11:43:30;100084.72;;;22.97;59.91
68807;BME280;55800;54.272;18.558;2023-09-19T11:46:04;100082.38;;;23.02;60.23
68807;BME280;55800;54.272;18.558;2023-09-19T11:48:34;100087.50;;;23.05;60.24
68807;BME280;55800;54.272;18.558;2023-09-19T11:51:17;100086.75;;;23.13;60.30
68807;BME280;55800;54.272;18.558;2023-09-19T11:53:58;100100.03;;;23.16;59.87
68807;BME280;55800;54.272;18.558;2023-09-19T11:56:28;100108.72;;;23.11;58.75
68807;BME280;55800;54.272;18.558;2023-09-19T11:58:59;100111.06;;;23.06;57.33
68807;BME280;55800;54.272;18.558;2023-09-19T12:01:31;100110.53;;;23.03;56.37
68807;BME280;55800;54.272;18.558;2023-09-19T12:04:03;100116.09;;;23.01;55.68
68807;BME280;55800;54.272;18.558;2023-09-19T12:06:34;100117.25;;;22.99;55.86
68807;BME280;55800;54.272;18.558;2023-09-19T12:09:07;100111.50;;;23.02;56.10
68807;BME280;55800;54.272;18.558;2023-09-19T12:11:44;100113.00;;;22.96;54.66
68807;BME280;55800;54.272;18.558;2023-09-19T12:14:22;100124.63;;;22.98;55.64
68807;BME280;55800;54.272;18.558;2023-09-19T12:16:55;100125.94;;;22.94;55.37
68807;BME280;55800;54.272;18.558;2023-09-19T12:21:59;100132.38;;;22.93;55.44
68807;BME280;55800;54.272;18.558;2023-09-19T12:24:33;100135.03;;;22.85;54.51
68807;BME280;55800;54.272;18.558;2023-09-19T12:27:06;100131.19;;;22.78;55.91
68807;BME280;55800;54.272;18.558;2023-09-19T12:29:45;100136.81;;;22.77;56.50
68807;BME280;55800;54.272;18.558;2023-09-19T12:32:14;100136.09;;;22.75;56.84
68807;BME280;55800;54.272;18.558;2023-09-19T12:34:51;100145.69;;;22.79;57.31
68807;BME280;55800;54.272;18.558;2023-09-19T12:37:24;100147.53;;;22.78;57.89
68807;BME280;55800;54.272;18.558;2023-09-19T12:40:05;100145.16;;;22.75;57.80
68807;BME280;55800;54.272;18.558;2023-09-19T12:42:46;100152.28;;;22.76;57.64
68807;BME280;55800;54.272;18.558;2023-09-19T12:45:16;100149.72;;;22.75;58.15
68807;BME280;55800;54.272;18.558;2023-09-19T12:48:17;100160.09;;;22.71;57.06
68807;BME280;55800;54.272;18.558;2023-09-19T12:51:02;100154.06;;;22.68;57.72
68807;BME280;55800;54.272;18.558;2023-09-19T12:53:37;100158.28;;;22.62;57.41
68807;BME280;55800;54.272;18.558;2023-09-19T12:56:10;100157.81;;;22.57;57.17
68807;BME280;55800;54.272;18.558;2023-09-19T12:58:53;100158.28;;;22.52;57.47
68807;BME280;55800;54.272;18.558;2023-09-19T13:01:24;100159.13;;;22.53;57.55
68807;BME280;55800;54.272;18.558;2023-09-19T13:04:12;100162.63;;;22.45;58.00
68807;BME280;55800;54.272;18.558;2023-09-19T13:06:43;100161.31;;;22.49;58.37
68807;BME280;55800;54.272;18.558;2023-09-19T13:09:15;100154.31;;;22.47;58.05
68807;BME280;55800;54.272;18.558;2023-09-19T13:11:45;100166.19;;;22.46;58.35
68807;BME280;55800;54.272;18.558;2023-09-19T13:14:20;100166.50;;;22.43;57.97
68807;BME280;55800;54.272;18.558;2023-09-19T13:16:55;100160.91;;;22.44;57.78
68807;BME280;55800;54.272;18.558;2023-09-19T13:19:41;100157.31;;;22.44;56.96
68807;BME280;55800;54.272;18.558;2023-09-19T13:22:37;100155.56;;;22.52;57.59
68807;BME280;55800;54.272;18.558;2023-09-19T13:25:09;100152.03;;;22.70;57.92
68807;BME280;55800;54.272;18.558;2023-09-19T13:27:43;100157.13;;;22.82;57.25
68807;BME280;55800;54.272;18.558;2023-09-19T13:30:13;100164.19;;;23.02;57.46
68807;BME280;55800;54.272;18.558;2023-09-19T13:32:43;100160.53;;;23.29;56.88